createdAt,value
2019-02-14T00:00:39.357Z,3.90
2019-02-14T00:03:09.166Z,3.80
2019-02-14T00:05:38.726Z,3.80
2019-02-14T00:08:08.239Z,3.80
2019-02-14T00:10:37.893Z,3.80
2019-02-14T00:13:08.537Z,3.80
2019-02-14T00:15:38.075Z,3.70
2019-02-14T00:18:07.661Z,3.70
2019-02-14T00:20:37.388Z,3.70
2019-02-14T00:23:06.958Z,3.70
2019-02-14T00:25:36.534Z,3.70
2019-02-14T00:28:06.136Z,3.70
2019-02-14T00:30:35.790Z,3.70
2019-02-14T00:33:05.430Z,3.70
2019-02-14T00:35:35.059Z,3.70
2019-02-14T00:38:04.632Z,3.70
2019-02-14T00:40:34.221Z,3.60
2019-02-14T00:43:03.912Z,3.60
2019-02-14T00:45:34.777Z,3.60
2019-02-14T00:48:04.461Z,3.60
2019-02-14T00:50:34.079Z,3.60
2019-02-14T00:53:03.652Z,3.60
2019-02-14T00:55:33.384Z,3.60
2019-02-14T00:58:04.018Z,3.60
2019-02-14T01:00:34.743Z,3.60
2019-02-14T01:03:04.326Z,3.60
2019-02-14T01:05:34.011Z,3.50
2019-02-14T01:08:03.664Z,3.60
2019-02-14T01:10:33.241Z,3.50
2019-02-14T01:13:02.920Z,3.50
2019-02-14T01:15:32.657Z,3.60
2019-02-14T01:18:02.220Z,3.60
2019-02-14T01:20:31.790Z,3.60
2019-02-14T01:23:01.392Z,3.60
2019-02-14T01:25:30.991Z,3.60
2019-02-14T01:28:00.567Z,3.50
2019-02-14T01:30:30.220Z,3.50
2019-02-14T01:32:59.806Z,3.50
2019-02-14T01:35:29.402Z,3.50
2019-02-14T01:37:59.142Z,3.50
2019-02-14T01:40:28.738Z,3.50
2019-02-14T01:42:58.325Z,3.50
2019-02-14T01:45:27.855Z,3.50
2019-02-14T01:47:57.386Z,3.50
2019-02-14T01:50:26.976Z,3.50
2019-02-14T01:52:56.560Z,3.50
2019-02-14T01:55:26.253Z,3.50
2019-02-14T01:57:55.942Z,3.40
2019-02-14T02:00:25.678Z,3.40
2019-02-14T02:02:55.262Z,3.40
2019-02-14T02:05:24.877Z,3.40
2019-02-14T02:07:54.439Z,3.40
2019-02-14T02:10:24.111Z,3.50
2019-02-14T02:12:53.784Z,3.50
2019-02-14T02:15:23.398Z,3.50
2019-02-14T02:17:52.980Z,3.50
2019-02-14T02:20:23.752Z,3.50
2019-02-14T02:22:53.405Z,3.50
2019-02-14T02:25:22.907Z,3.50
2019-02-14T02:27:52.560Z,3.60
2019-02-14T02:30:22.075Z,3.60
2019-02-14T02:32:51.677Z,3.60
2019-02-14T02:35:21.287Z,3.60
2019-02-14T02:37:50.834Z,3.70
2019-02-14T02:40:20.445Z,3.70
2019-02-14T02:42:50.018Z,3.70
2019-02-14T02:45:19.623Z,3.80
2019-02-14T02:47:49.285Z,3.80
2019-02-14T02:50:18.935Z,3.90
2019-02-14T02:52:48.647Z,3.90
2019-02-14T02:55:18.278Z,3.90
2019-02-14T02:57:48.872Z,4.00
2019-02-14T03:00:18.464Z,4.00
2019-02-14T03:02:48.132Z,4.00
2019-02-14T03:05:17.873Z,4.00
2019-02-14T03:07:47.538Z,4.10
2019-02-14T03:10:17.211Z,4.10
2019-02-14T03:12:46.888Z,4.10
2019-02-14T03:15:16.779Z,4.10
2019-02-14T03:17:46.335Z,4.20
2019-02-14T03:20:15.958Z,4.10
2019-02-14T03:22:45.499Z,4.20
2019-02-14T03:25:19.517Z,4.20
2019-02-14T03:27:49.091Z,4.20
2019-02-14T03:30:18.655Z,4.20
2019-02-14T03:32:48.500Z,4.20
2019-02-14T03:35:18.228Z,4.20
2019-02-14T03:37:47.930Z,4.20
2019-02-14T03:40:17.521Z,4.20
2019-02-14T03:42:47.118Z,4.20
2019-02-14T03:45:18.674Z,4.20
2019-02-14T03:47:48.233Z,4.20
2019-02-14T03:50:17.741Z,4.20
2019-02-14T03:52:47.341Z,4.20
2019-02-14T03:55:16.993Z,4.30
2019-02-14T03:57:46.640Z,4.30
2019-02-14T04:00:17.696Z,4.30
2019-02-14T04:02:47.220Z,4.30
2019-02-14T04:05:16.954Z,4.30
2019-02-14T04:07:47.519Z,4.30
2019-02-14T04:10:17.021Z,4.30
2019-02-14T04:12:46.720Z,4.40
2019-02-14T04:15:17.512Z,4.40
2019-02-14T04:17:47.083Z,4.40
2019-02-14T04:20:16.692Z,4.40
2019-02-14T04:22:46.290Z,4.40
2019-02-14T04:25:15.897Z,4.40
2019-02-14T04:27:45.550Z,4.50
2019-02-14T04:30:15.130Z,4.50
2019-02-14T04:32:44.818Z,4.50
2019-02-14T04:35:14.421Z,4.50
2019-02-14T04:37:44.035Z,4.50
2019-02-14T04:40:14.073Z,4.50
2019-02-14T04:42:43.675Z,4.50
2019-02-14T04:45:13.766Z,4.50
2019-02-14T04:47:43.838Z,4.50
2019-02-14T04:50:13.414Z,4.60
2019-02-14T04:52:43.002Z,4.60
2019-02-14T04:55:12.690Z,4.60
2019-02-14T04:57:42.274Z,4.60
2019-02-14T05:00:15.804Z,4.60
2019-02-14T05:02:45.498Z,4.60
2019-02-14T05:05:15.117Z,4.60
2019-02-14T05:07:44.688Z,4.60
2019-02-14T05:10:14.278Z,4.60
2019-02-14T05:12:43.920Z,4.70
2019-02-14T05:15:13.529Z,4.70
2019-02-14T05:17:43.115Z,4.70
2019-02-14T05:20:13.112Z,4.80
2019-02-14T05:22:42.744Z,4.80
2019-02-14T05:25:12.065Z,4.80
2019-02-14T05:27:42.745Z,4.80
2019-02-14T05:30:19.636Z,4.90
2019-02-14T05:32:49.224Z,4.90
2019-02-14T05:35:18.816Z,4.90
2019-02-14T05:37:48.496Z,4.90
2019-02-14T05:40:18.065Z,4.90
2019-02-14T05:42:47.671Z,5.00
2019-02-14T05:45:17.798Z,5.00
2019-02-14T05:47:47.458Z,5.00
2019-02-14T05:50:17.041Z,5.10
2019-02-14T05:52:46.648Z,5.10
2019-02-14T05:55:16.506Z,5.10
2019-02-14T05:57:47.861Z,5.10
2019-02-14T06:00:19.584Z,5.20
2019-02-14T06:02:49.334Z,5.20
2019-02-14T06:05:18.984Z,5.20
2019-02-14T06:07:48.491Z,5.20
2019-02-14T06:10:18.098Z,5.30
2019-02-14T06:12:47.665Z,5.20
2019-02-14T06:15:17.257Z,5.30
2019-02-14T06:17:47.024Z,5.30
2019-02-14T06:20:16.571Z,5.30
2019-02-14T06:22:46.178Z,5.40
2019-02-14T06:25:15.765Z,5.40
2019-02-14T06:27:45.362Z,5.40
2019-02-14T06:30:15.761Z,5.40
2019-02-14T06:32:45.412Z,5.40
2019-02-14T06:35:15.025Z,5.50
2019-02-14T06:37:44.607Z,5.50
2019-02-14T06:40:14.576Z,5.50
2019-02-14T06:42:44.171Z,5.50
2019-02-14T06:45:14.965Z,5.50
2019-02-14T06:47:45.519Z,5.50
2019-02-14T06:50:15.176Z,5.60
2019-02-14T06:52:44.869Z,5.60
2019-02-14T06:55:14.512Z,5.60
2019-02-14T06:57:44.180Z,5.60
2019-02-14T07:00:18.172Z,5.70
2019-02-14T07:02:47.832Z,5.70
2019-02-14T07:05:17.496Z,5.70
2019-02-14T07:07:47.106Z,5.70
2019-02-14T07:10:16.692Z,5.70
2019-02-14T07:12:46.340Z,5.70
2019-02-14T07:15:15.947Z,5.70
2019-02-14T07:17:45.683Z,5.80
2019-02-14T07:20:16.758Z,5.80
2019-02-14T07:22:46.392Z,5.80
2019-02-14T07:25:16.064Z,5.80
2019-02-14T07:27:45.667Z,5.90
2019-02-14T07:30:20.929Z,5.90
2019-02-14T07:32:50.488Z,5.90
2019-02-14T07:35:20.167Z,5.90
2019-02-14T07:37:49.715Z,5.90
2019-02-14T07:40:19.310Z,5.90
2019-02-14T07:42:48.958Z,6.00
2019-02-14T07:45:18.808Z,6.00
2019-02-14T07:47:48.392Z,6.00
2019-02-14T07:50:18.023Z,6.00
2019-02-14T07:52:47.625Z,6.10
2019-02-14T07:55:17.355Z,6.10
2019-02-14T07:57:48.101Z,6.10
2019-02-14T08:00:18.734Z,6.10
2019-02-14T08:02:48.382Z,6.20
2019-02-14T08:05:17.950Z,6.20
2019-02-14T08:07:47.560Z,6.30
2019-02-14T08:10:18.118Z,6.30
2019-02-14T08:12:47.796Z,6.30
2019-02-14T08:15:17.380Z,6.40
2019-02-14T08:17:46.967Z,6.40
2019-02-14T08:20:21.377Z,6.40
2019-02-14T08:22:50.963Z,6.40
2019-02-14T08:25:20.659Z,6.50
2019-02-14T08:27:50.234Z,6.50
2019-02-14T08:30:20.797Z,6.50
2019-02-14T08:32:50.503Z,6.60
2019-02-14T08:35:20.145Z,6.60
2019-02-14T08:37:49.783Z,6.60
2019-02-14T08:40:22.294Z,6.60
2019-02-14T08:42:51.910Z,6.70
2019-02-14T08:45:22.739Z,6.70
2019-02-14T08:47:52.252Z,6.70
2019-02-14T08:50:21.781Z,6.70
2019-02-14T08:52:51.371Z,6.80
2019-02-14T08:55:20.995Z,6.80
2019-02-14T08:57:50.592Z,6.80
2019-02-14T09:00:20.384Z,6.80
2019-02-14T09:02:49.970Z,6.80
2019-02-14T09:05:19.650Z,6.80
2019-02-14T09:07:54.568Z,6.90
2019-02-14T09:10:20.465Z,6.90
2019-02-14T09:12:50.115Z,6.90
2019-02-14T09:15:19.736Z,6.90
2019-02-14T09:17:49.332Z,7.00
2019-02-14T09:20:22.536Z,7.00
2019-02-14T09:22:53.583Z,7.00
2019-02-14T09:25:23.229Z,7.00
2019-02-14T09:27:52.854Z,7.10
2019-02-14T09:30:22.504Z,7.10
2019-02-14T09:32:52.150Z,7.10
2019-02-14T09:35:21.831Z,7.10
2019-02-14T09:37:51.420Z,7.10
2019-02-14T09:40:21.012Z,7.10
2019-02-14T09:42:50.777Z,7.20
2019-02-14T09:45:20.300Z,7.20
2019-02-14T09:47:49.943Z,7.20
2019-02-14T09:50:19.546Z,7.20
2019-02-14T09:52:49.193Z,7.20
2019-02-14T09:55:18.811Z,7.30
2019-02-14T09:57:48.398Z,7.20
2019-02-14T10:00:19.062Z,7.30
2019-02-14T10:02:48.662Z,7.30
2019-02-14T10:05:18.351Z,7.30
2019-02-14T10:07:47.922Z,7.30
2019-02-14T10:10:21.756Z,7.40
2019-02-14T10:12:52.894Z,7.40
2019-02-14T10:15:22.493Z,7.40
2019-02-14T10:17:52.086Z,7.40
2019-02-14T10:20:21.740Z,7.40
2019-02-14T10:22:51.369Z,7.40
2019-02-14T10:25:20.965Z,7.40
2019-02-14T10:27:50.697Z,7.40
2019-02-14T10:30:21.553Z,7.40
2019-02-14T10:32:51.152Z,7.40
2019-02-14T10:35:20.687Z,7.40
2019-02-14T10:37:50.348Z,7.40
2019-02-14T10:40:19.920Z,7.50
2019-02-14T10:42:49.516Z,7.50
2019-02-14T10:45:21.635Z,7.50
2019-02-14T10:47:51.255Z,7.50
2019-02-14T10:50:20.831Z,7.50
2019-02-14T10:52:50.505Z,7.60
2019-02-14T10:55:20.106Z,7.60
2019-02-14T10:57:49.862Z,7.70
2019-02-14T11:00:24.455Z,7.80
2019-02-14T11:02:56.865Z,7.80
2019-02-14T11:05:26.523Z,7.90
2019-02-14T11:07:56.191Z,7.90
2019-02-14T11:10:25.845Z,7.90
2019-02-14T11:12:55.437Z,8.00
2019-02-14T11:15:25.654Z,8.00
2019-02-14T11:17:55.302Z,8.10
2019-02-14T11:20:24.924Z,8.20
2019-02-14T11:22:54.496Z,8.20
2019-02-14T11:25:34.887Z,8.20
2019-02-14T11:28:04.494Z,8.30
2019-02-14T11:30:34.175Z,8.30
2019-02-14T11:33:03.867Z,8.40
2019-02-14T11:35:33.515Z,8.40
2019-02-14T11:38:03.034Z,8.50
2019-02-14T11:40:32.628Z,8.40
2019-02-14T11:43:02.294Z,8.40
2019-02-14T11:45:31.930Z,8.40
2019-02-14T11:48:01.566Z,8.40
2019-02-14T11:50:31.365Z,8.40
2019-02-14T11:53:00.989Z,8.40
2019-02-14T11:55:31.338Z,8.30
2019-02-14T11:58:00.920Z,8.40
2019-02-14T12:00:30.658Z,8.40
2019-02-14T12:03:00.389Z,8.30
2019-02-14T12:05:30.127Z,8.40
2019-02-14T12:07:59.741Z,8.40
2019-02-14T12:10:29.319Z,8.40
2019-02-14T12:12:58.936Z,8.40
2019-02-14T12:15:28.528Z,8.40
2019-02-14T12:17:58.296Z,8.30
2019-02-14T12:20:27.903Z,8.30
2019-02-14T12:22:57.483Z,8.30
2019-02-14T12:25:29.986Z,8.20
2019-02-14T12:27:59.594Z,8.20
2019-02-14T12:30:29.478Z,8.30
2019-02-14T12:32:59.068Z,8.30
2019-02-14T12:35:28.728Z,8.20
2019-02-14T12:37:58.322Z,8.20
2019-02-14T12:40:27.932Z,8.20
2019-02-14T12:42:57.584Z,8.20
2019-02-14T12:45:27.730Z,8.20
2019-02-14T12:47:57.322Z,8.20
2019-02-14T12:50:26.976Z,8.20
2019-02-14T12:52:56.570Z,8.20
2019-02-14T12:55:26.210Z,8.10
2019-02-14T12:57:56.021Z,8.10
2019-02-14T13:00:25.628Z,8.10
2019-02-14T13:02:55.365Z,8.10
2019-02-14T13:05:25.007Z,8.10
2019-02-14T13:07:54.682Z,8.20
2019-02-14T13:10:24.380Z,8.10
2019-02-14T13:12:53.957Z,8.10
2019-02-14T13:15:25.803Z,8.00
2019-02-14T13:17:55.476Z,8.10
2019-02-14T13:20:25.234Z,8.00
2019-02-14T13:22:54.929Z,8.00
2019-02-14T13:25:24.525Z,8.00
2019-02-14T13:27:54.098Z,8.00
2019-02-14T13:30:25.687Z,7.90
2019-02-14T13:32:55.314Z,7.90
2019-02-14T13:35:24.954Z,8.00
2019-02-14T13:37:54.547Z,8.00
2019-02-14T13:40:24.148Z,8.00
2019-02-14T13:42:53.821Z,8.00
2019-02-14T13:45:24.359Z,8.00
2019-02-14T13:47:54.042Z,8.00
2019-02-14T13:50:23.626Z,8.00
2019-02-14T13:52:53.238Z,8.00
2019-02-14T13:55:22.824Z,8.00
2019-02-14T13:57:52.424Z,8.00
2019-02-14T14:00:27.120Z,8.00
2019-02-14T14:02:56.739Z,8.00
2019-02-14T14:05:26.305Z,8.00
2019-02-14T14:07:56.000Z,8.00
2019-02-14T14:10:25.687Z,8.00
2019-02-14T14:12:55.372Z,8.00
2019-02-14T14:15:25.023Z,8.10
2019-02-14T14:17:54.596Z,8.10
2019-02-14T14:20:24.308Z,8.10
2019-02-14T14:22:53.969Z,8.10
2019-02-14T14:25:23.550Z,8.10
2019-02-14T14:27:53.231Z,8.10
2019-02-14T14:30:22.883Z,8.10
2019-02-14T14:32:52.544Z,8.10
2019-02-14T14:35:22.274Z,8.00
2019-02-14T14:37:51.896Z,8.10
2019-02-14T14:40:21.568Z,8.00
2019-02-14T14:42:52.798Z,8.10
2019-02-14T14:45:29.825Z,8.00
2019-02-14T14:47:59.479Z,8.00
2019-02-14T14:50:29.062Z,8.00
2019-02-14T14:52:58.682Z,8.00
2019-02-14T14:55:28.192Z,8.00
2019-02-14T14:57:57.772Z,8.00
2019-02-14T15:00:27.445Z,7.90
2019-02-14T15:02:56.952Z,7.90
2019-02-14T15:05:26.747Z,7.90
2019-02-14T15:07:56.374Z,7.90
2019-02-14T15:10:26.090Z,7.90
2019-02-14T15:12:56.064Z,7.90
2019-02-14T15:15:25.819Z,7.90
2019-02-14T15:17:55.406Z,7.90
2019-02-14T15:20:25.056Z,7.90
2019-02-14T15:22:56.298Z,7.90
2019-02-14T15:25:25.934Z,7.90
2019-02-14T15:27:55.556Z,7.90
2019-02-14T15:30:25.218Z,7.90
2019-02-14T15:32:54.944Z,7.90
2019-02-14T15:35:24.651Z,7.90
2019-02-14T15:37:54.310Z,7.90
2019-02-14T15:40:24.988Z,7.90
2019-02-14T15:42:54.574Z,7.90
2019-02-14T15:45:24.287Z,7.80
2019-02-14T15:47:53.856Z,7.80
2019-02-14T15:50:23.443Z,7.90
2019-02-14T15:52:54.630Z,7.80
2019-02-14T15:55:24.338Z,7.80
2019-02-14T15:57:54.018Z,7.80
2019-02-14T16:00:23.801Z,7.80
2019-02-14T16:02:53.389Z,7.80
2019-02-14T16:05:22.916Z,7.80
2019-02-14T16:07:52.536Z,7.80
2019-02-14T16:10:22.104Z,7.80
2019-02-14T16:12:52.882Z,7.80
2019-02-14T16:15:22.476Z,7.80
2019-02-14T16:17:52.149Z,7.80
2019-02-14T16:20:21.834Z,7.80
2019-02-14T16:22:51.532Z,7.80
2019-02-14T16:25:21.238Z,7.80
2019-02-14T16:27:50.854Z,7.80
2019-02-14T16:30:20.429Z,7.80
2019-02-14T16:32:50.079Z,7.80
2019-02-14T16:35:19.693Z,7.80
2019-02-14T16:37:50.622Z,7.70
2019-02-14T16:40:27.699Z,7.70
2019-02-14T16:42:51.616Z,7.70
2019-02-14T16:45:21.207Z,7.70
2019-02-14T16:47:50.845Z,7.70
2019-02-14T16:50:20.445Z,7.70
2019-02-14T16:52:50.039Z,7.60
2019-02-14T16:55:19.624Z,7.70
2019-02-14T16:57:49.323Z,7.70
2019-02-14T17:00:19.195Z,7.60
2019-02-14T17:02:48.674Z,7.60
2019-02-14T17:05:18.266Z,7.60
2019-02-14T17:07:47.875Z,7.50
2019-02-14T17:10:17.474Z,7.60
2019-02-14T17:12:47.056Z,7.50
2019-02-14T17:15:16.631Z,7.50
2019-02-14T17:17:46.284Z,7.50
2019-02-14T17:20:15.880Z,7.40
2019-02-14T17:22:45.609Z,7.40
2019-02-14T17:25:17.131Z,7.40
2019-02-14T17:27:46.529Z,7.40
2019-02-14T17:30:16.188Z,7.40
2019-02-14T17:32:45.867Z,7.40
2019-02-14T17:35:15.458Z,7.40
2019-02-14T17:37:45.043Z,7.30
2019-02-14T17:40:14.840Z,7.30
2019-02-14T17:42:44.471Z,7.30
2019-02-14T17:45:14.155Z,7.30
2019-02-14T17:47:44.170Z,7.20
2019-02-14T17:50:13.808Z,7.20
2019-02-14T17:52:43.409Z,7.20
2019-02-14T17:55:13.046Z,7.20
2019-02-14T17:57:42.656Z,7.20
2019-02-14T18:00:13.315Z,7.20
2019-02-14T18:02:42.929Z,7.20
2019-02-14T18:05:12.538Z,7.10
2019-02-14T18:07:42.134Z,7.10
2019-02-14T18:10:12.845Z,7.10
2019-02-14T18:12:42.514Z,7.10
2019-02-14T18:15:15.216Z,7.00
2019-02-14T18:17:44.794Z,7.00
2019-02-14T18:20:33.647Z,7.00
2019-02-14T18:23:03.462Z,7.00
2019-02-14T18:25:33.088Z,7.00
2019-02-14T18:28:03.847Z,7.00
2019-02-14T18:30:33.514Z,7.00
2019-02-14T18:33:03.175Z,7.00
2019-02-14T18:35:32.950Z,7.00
2019-02-14T18:38:02.609Z,7.00
2019-02-14T18:40:32.214Z,7.00
2019-02-14T18:43:01.966Z,6.90
2019-02-14T18:45:32.030Z,6.90
2019-02-14T18:48:01.682Z,6.90
2019-02-14T18:50:31.468Z,6.90
2019-02-14T18:53:01.135Z,6.90
2019-02-14T18:55:30.806Z,6.80
2019-02-14T18:58:00.521Z,6.80
2019-02-14T19:00:30.250Z,6.80
2019-02-14T19:02:59.881Z,6.80
2019-02-14T19:05:29.524Z,6.70
2019-02-14T19:07:59.092Z,6.70
2019-02-14T19:10:28.738Z,6.70
2019-02-14T19:12:58.367Z,6.70
2019-02-14T19:15:28.013Z,6.60
2019-02-14T19:17:58.685Z,6.60
2019-02-14T19:20:28.361Z,6.60
2019-02-14T19:22:57.955Z,6.60
2019-02-14T19:25:29.517Z,6.50
2019-02-14T19:27:59.903Z,6.60
2019-02-14T19:30:30.169Z,6.60
2019-02-14T19:32:59.843Z,6.60
2019-02-14T19:35:29.424Z,6.60
2019-02-14T19:37:59.013Z,6.50
2019-02-14T19:40:28.663Z,6.50
2019-02-14T19:42:59.366Z,6.50
2019-02-14T19:45:36.267Z,6.50
2019-02-14T19:48:00.504Z,6.50
2019-02-14T19:50:30.086Z,6.50
2019-02-14T19:52:59.692Z,6.50
2019-02-14T19:55:29.307Z,6.50
2019-02-14T19:57:59.335Z,6.50
2019-02-14T20:00:29.091Z,6.40
2019-02-14T20:02:58.711Z,6.40
2019-02-14T20:05:28.279Z,6.40
2019-02-14T20:07:57.956Z,6.30
2019-02-14T20:10:27.689Z,6.30
2019-02-14T20:12:59.532Z,6.30
2019-02-14T20:15:36.818Z,6.30
2019-02-14T20:18:01.268Z,6.30
2019-02-14T20:20:32.033Z,6.20
2019-02-14T20:23:01.686Z,6.20
2019-02-14T20:25:31.272Z,6.20
2019-02-14T20:28:00.873Z,6.20
2019-02-14T20:30:30.523Z,6.20
2019-02-14T20:33:04.835Z,6.20
2019-02-14T20:35:31.268Z,6.20
2019-02-14T20:38:00.925Z,6.20
2019-02-14T20:40:32.039Z,6.10
2019-02-14T20:43:01.803Z,6.10
2019-02-14T20:45:31.534Z,6.10
2019-02-14T20:48:01.120Z,6.10
2019-02-14T20:50:30.741Z,6.10
2019-02-14T20:53:00.323Z,6.10
2019-02-14T20:55:29.941Z,6.10
2019-02-14T20:57:59.606Z,6.10
2019-02-14T21:00:33.619Z,6.10
2019-02-14T21:03:03.341Z,6.10
2019-02-14T21:05:32.944Z,6.10
2019-02-14T21:08:02.652Z,6.10
2019-02-14T21:10:32.238Z,6.10
2019-02-14T21:13:01.863Z,6.10
2019-02-14T21:15:31.448Z,6.10
2019-02-14T21:18:01.115Z,6.10
2019-02-14T21:20:30.693Z,6.10
2019-02-14T21:23:00.219Z,6.10
2019-02-14T21:25:29.931Z,6.10
2019-02-14T21:27:59.768Z,6.10
2019-02-14T21:30:34.945Z,6.10
2019-02-14T21:33:01.744Z,6.10
2019-02-14T21:35:31.368Z,6.10
2019-02-14T21:38:00.936Z,6.10
2019-02-14T21:40:30.648Z,6.10
2019-02-14T21:43:00.210Z,6.10
2019-02-14T21:45:31.030Z,6.10
2019-02-14T21:48:00.665Z,6.10
2019-02-14T21:50:30.327Z,6.10
2019-02-14T21:53:00.150Z,6.10
2019-02-14T21:55:29.809Z,6.20
2019-02-14T21:57:59.616Z,6.20
2019-02-14T22:00:29.796Z,6.20
2019-02-14T22:02:59.465Z,6.20
2019-02-14T22:05:29.049Z,6.20
2019-02-14T22:07:58.639Z,6.20
2019-02-14T22:10:28.242Z,6.20
2019-02-14T22:12:57.813Z,6.20
2019-02-14T22:15:29.010Z,6.20
2019-02-14T22:17:58.638Z,6.20
2019-02-14T22:20:28.285Z,6.20
2019-02-14T22:22:57.958Z,6.20
2019-02-14T22:25:27.549Z,6.20
2019-02-14T22:27:57.194Z,6.20
2019-02-14T22:30:26.798Z,6.20
2019-02-14T22:32:56.414Z,6.20
2019-02-14T22:35:26.007Z,6.20
2019-02-14T22:37:55.594Z,6.20
2019-02-14T22:40:25.326Z,6.20
2019-02-14T22:42:54.942Z,6.30
2019-02-14T22:45:24.524Z,6.30
2019-02-14T22:47:54.245Z,6.20
2019-02-14T22:50:23.928Z,6.20
2019-02-14T22:52:53.586Z,6.20
2019-02-14T22:55:23.249Z,6.30
2019-02-14T22:57:52.988Z,6.30
2019-02-14T23:00:37.583Z,6.20
2019-02-14T23:03:07.678Z,6.30
2019-02-14T23:05:37.399Z,6.30
2019-02-14T23:08:07.117Z,6.30
2019-02-14T23:10:36.938Z,6.30
2019-02-14T23:13:06.686Z,6.30
2019-02-14T23:15:36.440Z,6.30
2019-02-14T23:18:06.142Z,6.30
2019-02-14T23:20:35.923Z,6.30
2019-02-14T23:23:05.628Z,6.30
2019-02-14T23:25:35.346Z,6.30
2019-02-14T23:28:05.111Z,6.30
2019-02-14T23:30:34.814Z,6.30
2019-02-14T23:33:04.575Z,6.30
2019-02-14T23:35:35.304Z,6.30
2019-02-14T23:38:05.020Z,6.30
2019-02-14T23:40:34.763Z,6.30
2019-02-14T23:43:05.059Z,6.30
2019-02-14T23:45:34.823Z,6.30
2019-02-14T23:48:04.585Z,6.30
2019-02-14T23:50:34.324Z,6.30
2019-02-14T23:53:04.093Z,6.30
2019-02-14T23:55:33.808Z,6.30
2019-02-14T23:58:03.538Z,6.30
